EGPN/DND METAR and TAF weather

Enter ICAO airport designator
Station Type Date Time Source
EGPN METAR 2018/07/20 19:20 UTC NOAA

EGPN 201920Z 19004KT 9999 FEW018 SCT038 19/17 Q1011


Station Type Date Time Source
EGPN Decoded METAR 2018/07/20 19:20 UTC NOAA

Dundee / Riverside, United Kingdom (EGPN) 56-27N 003-01W
Jul 20, 2018 - 03:20 PM EDT / 2018.07.20 1920 UTC
Wind: from the S (190 degrees) at 5 MPH (4 KT):0
Visibility: greater than 7 mile(s):0
Sky conditions: partly cloudy
Temperature: 66 F (19 C)
Dew Point: 62 F (17 C)
Relative Humidity: 88%
Pressure (altimeter): 29.85 in. Hg (1011 hPa)
ob: EGPN 201920Z 19004KT 9999 FEW018 SCT038 19/17 Q1011
cycle: 19

Station Type Date Time Source
EGPN TAF UTC NOAA

Error!


Example: see airport list